sensor_id;sensor_type;location;lat;lon;timestamp;P1;durP1;ratioP1;P2;durP2;ratioP2
68315;SDS011;55508;54.368;18.406;2023-09-18T00:00:08;87.70;;;40.50;;
68315;SDS011;55508;54.368;18.406;2023-09-18T00:02:38;82.13;;;39.08;;
68315;SDS011;55508;54.368;18.406;2023-09-18T00:05:06;86.75;;;40.20;;
68315;SDS011;55508;54.368;18.406;2023-09-18T00:07:35;77.18;;;39.70;;
68315;SDS011;55508;54.368;18.406;2023-09-18T00:10:02;87.25;;;41.03;;
68315;SDS011;55508;54.368;18.406;2023-09-18T00:12:29;84.35;;;40.08;;
68315;SDS011;55508;54.368;18.406;2023-09-18T00:14:56;80.68;;;38.95;;
68315;SDS011;55508;54.368;18.406;2023-09-18T00:17:23;80.60;;;37.78;;
68315;SDS011;55508;54.368;18.406;2023-09-18T00:19:50;78.55;;;37.83;;
68315;SDS011;55508;54.368;18.406;2023-09-18T00:22:18;76.38;;;37.70;;
68315;SDS011;55508;54.368;18.406;2023-09-18T00:24:45;70.47;;;37.10;;
68315;SDS011;55508;54.368;18.406;2023-09-18T00:27:12;75.43;;;38.10;;
68315;SDS011;55508;54.368;18.406;2023-09-18T00:29:40;80.95;;;38.38;;
68315;SDS011;55508;54.368;18.406;2023-09-18T00:32:07;75.40;;;38.80;;
68315;SDS011;55508;54.368;18.406;2023-09-18T00:34:34;73.57;;;37.50;;
68315;SDS011;55508;54.368;18.406;2023-09-18T00:37:01;74.72;;;38.65;;
68315;SDS011;55508;54.368;18.406;2023-09-18T00:39:28;78.70;;;39.20;;
68315;SDS011;55508;54.368;18.406;2023-09-18T00:41:55;72.10;;;37.60;;
68315;SDS011;55508;54.368;18.406;2023-09-18T00:44:23;74.55;;;39.15;;
68315;SDS011;55508;54.368;18.406;2023-09-18T00:46:53;71.80;;;37.88;;
68315;SDS011;55508;54.368;18.406;2023-09-18T00:49:22;77.25;;;38.13;;
68315;SDS011;55508;54.368;18.406;2023-09-18T00:51:49;72.55;;;36.83;;
68315;SDS011;55508;54.368;18.406;2023-09-18T00:54:17;79.93;;;38.45;;
68315;SDS011;55508;54.368;18.406;2023-09-18T00:56:45;77.22;;;37.15;;
68315;SDS011;55508;54.368;18.406;2023-09-18T00:59:14;76.03;;;37.40;;
68315;SDS011;55508;54.368;18.406;2023-09-18T01:01:42;77.32;;;37.22;;
68315;SDS011;55508;54.368;18.406;2023-09-18T01:04:09;76.43;;;37.17;;
68315;SDS011;55508;54.368;18.406;2023-09-18T01:06:37;75.53;;;37.22;;
68315;SDS011;55508;54.368;18.406;2023-09-18T01:09:04;71.38;;;37.03;;
68315;SDS011;55508;54.368;18.406;2023-09-18T01:14:35;84.03;;;37.10;;
68315;SDS011;55508;54.368;18.406;2023-09-18T01:17:05;84.70;;;38.35;;
68315;SDS011;55508;54.368;18.406;2023-09-18T01:19:35;77.38;;;37.95;;
68315;SDS011;55508;54.368;18.406;2023-09-18T01:22:14;76.25;;;38.75;;
68315;SDS011;55508;54.368;18.406;2023-09-18T01:24:43;81.78;;;38.75;;
68315;SDS011;55508;54.368;18.406;2023-09-18T01:27:12;77.13;;;38.25;;
68315;SDS011;55508;54.368;18.406;2023-09-18T01:29:40;79.40;;;36.95;;
68315;SDS011;55508;54.368;18.406;2023-09-18T01:32:07;74.10;;;36.90;;
68315;SDS011;55508;54.368;18.406;2023-09-18T01:34:36;78.20;;;38.03;;
68315;SDS011;55508;54.368;18.406;2023-09-18T01:37:06;81.32;;;38.28;;
68315;SDS011;55508;54.368;18.406;2023-09-18T01:39:35;92.00;;;38.63;;
68315;SDS011;55508;54.368;18.406;2023-09-18T01:42:03;79.90;;;38.40;;
68315;SDS011;55508;54.368;18.406;2023-09-18T01:44:35;87.55;;;39.53;;
68315;SDS011;55508;54.368;18.406;2023-09-18T01:47:07;86.97;;;41.50;;
68315;SDS011;55508;54.368;18.406;2023-09-18T01:49:39;95.30;;;42.05;;
68315;SDS011;55508;54.368;18.406;2023-09-18T01:52:07;92.68;;;40.42;;
68315;SDS011;55508;54.368;18.406;2023-09-18T01:54:35;88.70;;;40.65;;
68315;SDS011;55508;54.368;18.406;2023-09-18T01:57:03;92.30;;;41.75;;
68315;SDS011;55508;54.368;18.406;2023-09-18T01:59:31;93.93;;;41.65;;
68315;SDS011;55508;54.368;18.406;2023-09-18T02:01:58;100.35;;;43.03;;
68315;SDS011;55508;54.368;18.406;2023-09-18T02:04:26;90.53;;;40.83;;
68315;SDS011;55508;54.368;18.406;2023-09-18T02:07:13;107.60;;;41.78;;
68315;SDS011;55508;54.368;18.406;2023-09-18T02:09:41;96.22;;;41.92;;
68315;SDS011;55508;54.368;18.406;2023-09-18T02:12:08;98.45;;;44.17;;
68315;SDS011;55508;54.368;18.406;2023-09-18T02:14:36;107.18;;;45.38;;
68315;SDS011;55508;54.368;18.406;2023-09-18T02:17:03;84.97;;;38.47;;
68315;SDS011;55508;54.368;18.406;2023-09-18T02:19:31;90.25;;;39.15;;
68315;SDS011;55508;54.368;18.406;2023-09-18T02:21:59;93.03;;;39.67;;
68315;SDS011;55508;54.368;18.406;2023-09-18T02:24:27;73.32;;;32.40;;
68315;SDS011;55508;54.368;18.406;2023-09-18T02:26:54;102.70;;;38.08;;
68315;SDS011;55508;54.368;18.406;2023-09-18T02:29:21;108.13;;;42.25;;
68315;SDS011;55508;54.368;18.406;2023-09-18T02:31:48;90.07;;;37.53;;
68315;SDS011;55508;54.368;18.406;2023-09-18T02:34:15;102.03;;;42.10;;
68315;SDS011;55508;54.368;18.406;2023-09-18T02:36:42;93.80;;;39.50;;
68315;SDS011;55508;54.368;18.406;2023-09-18T02:39:09;175.73;;;37.55;;
68315;SDS011;55508;54.368;18.406;2023-09-18T02:41:36;215.25;;;46.38;;
68315;SDS011;55508;54.368;18.406;2023-09-18T02:44:03;174.52;;;41.75;;
68315;SDS011;55508;54.368;18.406;2023-09-18T02:46:31;87.35;;;38.72;;
68315;SDS011;55508;54.368;18.406;2023-09-18T02:48:58;108.07;;;38.17;;
68315;SDS011;55508;54.368;18.406;2023-09-18T02:51:25;91.00;;;38.50;;
68315;SDS011;55508;54.368;18.406;2023-09-18T02:53:52;87.93;;;38.05;;
68315;SDS011;55508;54.368;18.406;2023-09-18T02:56:19;576.80;;;60.25;;
68315;SDS011;55508;54.368;18.406;2023-09-18T02:58:46;893.30;;;80.00;;
68315;SDS011;55508;54.368;18.406;2023-09-18T03:01:13;916.65;;;69.93;;
68315;SDS011;55508;54.368;18.406;2023-09-18T03:03:40;330.10;;;43.45;;
68315;SDS011;55508;54.368;18.406;2023-09-18T03:06:09;986.97;;;80.18;;
68315;SDS011;55508;54.368;18.406;2023-09-18T03:08:36;382.58;;;50.05;;
68315;SDS011;55508;54.368;18.406;2023-09-18T03:11:11;246.77;;;40.13;;
68315;SDS011;55508;54.368;18.406;2023-09-18T03:13:44;222.35;;;43.50;;
68315;SDS011;55508;54.368;18.406;2023-09-18T03:16:15;300.30;;;47.67;;
68315;SDS011;55508;54.368;18.406;2023-09-18T03:18:44;303.98;;;49.65;;
68315;SDS011;55508;54.368;18.406;2023-09-18T03:21:11;309.40;;;51.33;;
68315;SDS011;55508;54.368;18.406;2023-09-18T03:23:38;328.02;;;47.10;;
68315;SDS011;55508;54.368;18.406;2023-09-18T03:26:05;488.70;;;54.20;;
68315;SDS011;55508;54.368;18.406;2023-09-18T03:28:32;724.83;;;66.25;;
68315;SDS011;55508;54.368;18.406;2023-09-18T03:30:59;327.08;;;47.75;;
68315;SDS011;55508;54.368;18.406;2023-09-18T03:33:27;723.88;;;69.43;;
68315;SDS011;55508;54.368;18.406;2023-09-18T03:35:54;240.52;;;47.67;;
68315;SDS011;55508;54.368;18.406;2023-09-18T03:38:27;163.88;;;44.20;;
68315;SDS011;55508;54.368;18.406;2023-09-18T03:40:54;178.05;;;47.10;;
68315;SDS011;55508;54.368;18.406;2023-09-18T03:43:21;283.02;;;56.28;;
68315;SDS011;55508;54.368;18.406;2023-09-18T03:45:49;289.58;;;55.15;;
68315;SDS011;55508;54.368;18.406;2023-09-18T03:48:17;406.33;;;59.97;;
68315;SDS011;55508;54.368;18.406;2023-09-18T03:50:44;458.67;;;63.22;;
68315;SDS011;55508;54.368;18.406;2023-09-18T03:53:11;488.77;;;64.20;;
68315;SDS011;55508;54.368;18.406;2023-09-18T03:55:38;864.67;;;72.22;;
68315;SDS011;55508;54.368;18.406;2023-09-18T03:58:05;211.18;;;53.90;;
68315;SDS011;55508;54.368;18.406;2023-09-18T04:00:32;838.85;;;81.20;;
68315;SDS011;55508;54.368;18.406;2023-09-18T04:02:59;604.63;;;70.32;;
68315;SDS011;55508;54.368;18.406;2023-09-18T04:05:27;140.88;;;47.15;;
68315;SDS011;55508;54.368;18.406;2023-09-18T04:07:56;302.50;;;53.80;;
68315;SDS011;55508;54.368;18.406;2023-09-18T04:10:23;270.50;;;43.55;;
68315;SDS011;55508;54.368;18.406;2023-09-18T04:12:51;258.58;;;43.70;;
68315;SDS011;55508;54.368;18.406;2023-09-18T04:15:18;611.95;;;61.42;;
68315;SDS011;55508;54.368;18.406;2023-09-18T04:17:46;561.50;;;58.83;;
68315;SDS011;55508;54.368;18.406;2023-09-18T04:20:14;669.05;;;65.85;;
68315;SDS011;55508;54.368;18.406;2023-09-18T04:22:42;439.23;;;54.40;;
68315;SDS011;55508;54.368;18.406;2023-09-18T04:25:11;494.50;;;55.17;;
68315;SDS011;55508;54.368;18.406;2023-09-18T04:27:39;303.35;;;44.17;;
68315;SDS011;55508;54.368;18.406;2023-09-18T04:30:06;581.35;;;63.95;;
68315;SDS011;55508;54.368;18.406;2023-09-18T04:32:36;484.92;;;58.38;;
68315;SDS011;55508;54.368;18.406;2023-09-18T04:35:04;106.30;;;38.35;;
68315;SDS011;55508;54.368;18.406;2023-09-18T04:37:35;73.45;;;34.65;;
68315;SDS011;55508;54.368;18.406;2023-09-18T04:40:04;155.15;;;39.85;;
68315;SDS011;55508;54.368;18.406;2023-09-18T04:42:38;731.08;;;66.45;;
68315;SDS011;55508;54.368;18.406;2023-09-18T04:45:07;143.68;;;44.85;;
68315;SDS011;55508;54.368;18.406;2023-09-18T04:47:35;116.18;;;43.22;;
68315;SDS011;55508;54.368;18.406;2023-09-18T04:50:03;457.63;;;57.17;;
68315;SDS011;55508;54.368;18.406;2023-09-18T04:52:40;424.52;;;54.92;;
68315;SDS011;55508;54.368;18.406;2023-09-18T04:55:13;421.02;;;51.08;;
68315;SDS011;55508;54.368;18.406;2023-09-18T04:57:41;436.77;;;50.97;;
68315;SDS011;55508;54.368;18.406;2023-09-18T05:00:08;378.83;;;48.28;;
68315;SDS011;55508;54.368;18.406;2023-09-18T05:02:44;345.65;;;49.97;;
68315;SDS011;55508;54.368;18.406;2023-09-18T05:05:12;515.58;;;63.13;;
68315;SDS011;55508;54.368;18.406;2023-09-18T05:07:41;401.08;;;57.45;;
68315;SDS011;55508;54.368;18.406;2023-09-18T05:10:09;599.95;;;68.97;;
68315;SDS011;55508;54.368;18.406;2023-09-18T05:12:39;360.38;;;58.70;;
68315;SDS011;55508;54.368;18.406;2023-09-18T05:15:07;390.42;;;57.35;;
68315;SDS011;55508;54.368;18.406;2023-09-18T05:17:40;414.13;;;59.42;;
68315;SDS011;55508;54.368;18.406;2023-09-18T05:20:10;127.82;;;36.35;;
68315;SDS011;55508;54.368;18.406;2023-09-18T05:22:43;113.03;;;27.83;;
68315;SDS011;55508;54.368;18.406;2023-09-18T05:25:10;63.38;;;26.33;;
68315;SDS011;55508;54.368;18.406;2023-09-18T05:27:38;102.00;;;33.33;;
68315;SDS011;55508;54.368;18.406;2023-09-18T05:30:12;66.70;;;27.90;;
68315;SDS011;55508;54.368;18.406;2023-09-18T05:32:45;80.25;;;27.58;;
68315;SDS011;55508;54.368;18.406;2023-09-18T05:35:12;69.90;;;25.42;;
68315;SDS011;55508;54.368;18.406;2023-09-18T05:37:40;36.38;;;24.10;;
68315;SDS011;55508;54.368;18.406;2023-09-18T05:40:09;42.80;;;25.00;;
68315;SDS011;55508;54.368;18.406;2023-09-18T05:42:37;38.78;;;25.08;;
68315;SDS011;55508;54.368;18.406;2023-09-18T05:45:05;38.83;;;24.80;;
68315;SDS011;55508;54.368;18.406;2023-09-18T05:47:33;33.60;;;25.13;;
68315;SDS011;55508;54.368;18.406;2023-09-18T05:50:00;38.88;;;25.40;;
68315;SDS011;55508;54.368;18.406;2023-09-18T05:52:27;35.92;;;25.73;;
68315;SDS011;55508;54.368;18.406;2023-09-18T05:54:54;40.55;;;26.25;;
68315;SDS011;55508;54.368;18.406;2023-09-18T05:57:21;41.67;;;28.27;;
68315;SDS011;55508;54.368;18.406;2023-09-18T05:59:49;38.70;;;26.63;;
68315;SDS011;55508;54.368;18.406;2023-09-18T06:02:16;36.30;;;26.20;;
68315;SDS011;55508;54.368;18.406;2023-09-18T06:04:43;34.78;;;24.48;;
68315;SDS011;55508;54.368;18.406;2023-09-18T06:07:11;30.75;;;22.48;;
68315;SDS011;55508;54.368;18.406;2023-09-18T06:09:40;37.97;;;22.85;;
68315;SDS011;55508;54.368;18.406;2023-09-18T06:12:07;26.45;;;19.75;;
68315;SDS011;55508;54.368;18.406;2023-09-18T06:14:36;24.85;;;19.85;;
68315;SDS011;55508;54.368;18.406;2023-09-18T06:17:05;22.98;;;19.77;;
68315;SDS011;55508;54.368;18.406;2023-09-18T06:19:32;31.35;;;20.45;;
68315;SDS011;55508;54.368;18.406;2023-09-18T06:22:00;27.33;;;19.27;;
68315;SDS011;55508;54.368;18.406;2023-09-18T06:24:27;22.67;;;18.27;;
68315;SDS011;55508;54.368;18.406;2023-09-18T06:26:54;20.45;;;16.45;;
68315;SDS011;55508;54.368;18.406;2023-09-18T06:29:21;21.90;;;15.90;;
68315;SDS011;55508;54.368;18.406;2023-09-18T06:31:49;19.20;;;15.82;;
68315;SDS011;55508;54.368;18.406;2023-09-18T06:34:16;17.77;;;15.95;;
68315;SDS011;55508;54.368;18.406;2023-09-18T06:36:46;20.17;;;15.70;;
68315;SDS011;55508;54.368;18.406;2023-09-18T06:39:13;16.90;;;14.88;;
68315;SDS011;55508;54.368;18.406;2023-09-18T06:41:41;15.35;;;13.95;;
68315;SDS011;55508;54.368;18.406;2023-09-18T06:44:11;14.90;;;13.48;;
68315;SDS011;55508;54.368;18.406;2023-09-18T06:46:38;14.50;;;13.23;;
68315;SDS011;55508;54.368;18.406;2023-09-18T06:49:06;15.65;;;14.15;;
68315;SDS011;55508;54.368;18.406;2023-09-18T06:51:33;14.70;;;13.13;;
68315;SDS011;55508;54.368;18.406;2023-09-18T06:54:09;14.65;;;13.25;;
68315;SDS011;55508;54.368;18.406;2023-09-18T06:56:36;15.30;;;13.63;;
68315;SDS011;55508;54.368;18.406;2023-09-18T06:59:03;13.48;;;12.40;;
68315;SDS011;55508;54.368;18.406;2023-09-18T07:01:30;13.93;;;12.77;;
68315;SDS011;55508;54.368;18.406;2023-09-18T07:03:58;14.13;;;12.57;;
68315;SDS011;55508;54.368;18.406;2023-09-18T07:06:27;14.13;;;12.93;;
68315;SDS011;55508;54.368;18.406;2023-09-18T07:08:54;13.93;;;12.65;;
68315;SDS011;55508;54.368;18.406;2023-09-18T07:11:22;14.57;;;12.57;;
68315;SDS011;55508;54.368;18.406;2023-09-18T07:13:51;13.85;;;12.25;;
68315;SDS011;55508;54.368;18.406;2023-09-18T07:16:18;14.60;;;12.43;;
68315;SDS011;55508;54.368;18.406;2023-09-18T07:18:46;14.18;;;12.77;;
68315;SDS011;55508;54.368;18.406;2023-09-18T07:21:13;13.85;;;12.40;;
68315;SDS011;55508;54.368;18.406;2023-09-18T07:23:40;13.10;;;11.85;;
68315;SDS011;55508;54.368;18.406;2023-09-18T07:26:07;12.48;;;11.27;;
68315;SDS011;55508;54.368;18.406;2023-09-18T07:28:34;12.13;;;11.13;;
68315;SDS011;55508;54.368;18.406;2023-09-18T07:31:05;12.27;;;11.07;;
68315;SDS011;55508;54.368;18.406;2023-09-18T07:33:32;11.73;;;10.77;;
68315;SDS011;55508;54.368;18.406;2023-09-18T07:36:00;13.02;;;10.55;;
68315;SDS011;55508;54.368;18.406;2023-09-18T07:38:27;20.42;;;11.13;;
68315;SDS011;55508;54.368;18.406;2023-09-18T07:40:54;11.23;;;10.23;;
68315;SDS011;55508;54.368;18.406;2023-09-18T07:43:24;11.35;;;10.45;;
68315;SDS011;55508;54.368;18.406;2023-09-18T07:45:52;12.20;;;10.57;;
68315;SDS011;55508;54.368;18.406;2023-09-18T07:48:21;11.15;;;10.40;;
68315;SDS011;55508;54.368;18.406;2023-09-18T07:50:49;10.80;;;9.65;;
68315;SDS011;55508;54.368;18.406;2023-09-18T07:53:18;11.10;;;10.10;;
68315;SDS011;55508;54.368;18.406;2023-09-18T07:55:47;12.32;;;9.90;;
68315;SDS011;55508;54.368;18.406;2023-09-18T07:58:15;12.38;;;9.35;;
68315;SDS011;55508;54.368;18.406;2023-09-18T08:00:42;10.38;;;9.13;;
68315;SDS011;55508;54.368;18.406;2023-09-18T08:03:09;11.00;;;9.00;;
68315;SDS011;55508;54.368;18.406;2023-09-18T08:05:37;9.18;;;8.32;;
68315;SDS011;55508;54.368;18.406;2023-09-18T08:08:04;9.07;;;8.27;;
68315;SDS011;55508;54.368;18.406;2023-09-18T08:10:32;10.07;;;8.50;;
68315;SDS011;55508;54.368;18.406;2023-09-18T08:12:59;8.88;;;8.18;;
68315;SDS011;55508;54.368;18.406;2023-09-18T08:15:26;8.77;;;7.78;;
68315;SDS011;55508;54.368;18.406;2023-09-18T08:17:54;8.75;;;7.95;;
68315;SDS011;55508;54.368;18.406;2023-09-18T08:20:22;9.20;;;7.43;;
68315;SDS011;55508;54.368;18.406;2023-09-18T08:22:48;8.90;;;8.10;;
68315;SDS011;55508;54.368;18.406;2023-09-18T08:25:17;10.93;;;7.10;;
68315;SDS011;55508;54.368;18.406;2023-09-18T08:27:44;11.10;;;7.43;;
68315;SDS011;55508;54.368;18.406;2023-09-18T08:30:12;8.52;;;7.07;;
68315;SDS011;55508;54.368;18.406;2023-09-18T08:32:40;9.10;;;8.18;;
68315;SDS011;55508;54.368;18.406;2023-09-18T08:35:08;9.18;;;7.78;;
68315;SDS011;55508;54.368;18.406;2023-09-18T08:37:35;9.57;;;8.18;;
68315;SDS011;55508;54.368;18.406;2023-09-18T08:40:03;10.50;;;9.63;;
68315;SDS011;55508;54.368;18.406;2023-09-18T08:42:41;12.13;;;10.32;;
68315;SDS011;55508;54.368;18.406;2023-09-18T08:45:15;13.48;;;10.18;;
68315;SDS011;55508;54.368;18.406;2023-09-18T08:47:46;10.38;;;8.27;;
68315;SDS011;55508;54.368;18.406;2023-09-18T08:50:13;14.98;;;8.10;;
68315;SDS011;55508;54.368;18.406;2023-09-18T08:52:42;10.85;;;7.47;;
68315;SDS011;55508;54.368;18.406;2023-09-18T08:55:10;8.68;;;7.57;;
68315;SDS011;55508;54.368;18.406;2023-09-18T08:57:37;8.48;;;7.68;;
68315;SDS011;55508;54.368;18.406;2023-09-18T09:00:05;7.78;;;7.07;;
68315;SDS011;55508;54.368;18.406;2023-09-18T09:02:34;9.57;;;8.32;;
68315;SDS011;55508;54.368;18.406;2023-09-18T09:05:01;10.23;;;7.82;;
68315;SDS011;55508;54.368;18.406;2023-09-18T09:07:28;7.60;;;6.20;;
68315;SDS011;55508;54.368;18.406;2023-09-18T09:09:58;8.07;;;7.32;;
68315;SDS011;55508;54.368;18.406;2023-09-18T09:15:16;9.40;;;6.55;;
68315;SDS011;55508;54.368;18.406;2023-09-18T09:17:44;14.43;;;7.28;;
68315;SDS011;55508;54.368;18.406;2023-09-18T09:20:12;9.50;;;8.48;;
68315;SDS011;55508;54.368;18.406;2023-09-18T09:22:40;11.25;;;8.82;;
68315;SDS011;55508;54.368;18.406;2023-09-18T09:27:58;9.73;;;9.02;;
68315;SDS011;55508;54.368;18.406;2023-09-18T09:30:27;9.82;;;8.40;;
68315;SDS011;55508;54.368;18.406;2023-09-18T09:32:55;9.60;;;8.70;;
68315;SDS011;55508;54.368;18.406;2023-09-18T09:35:25;16.25;;;8.95;;
68315;SDS011;55508;54.368;18.406;2023-09-18T09:37:57;9.43;;;8.38;;
68315;SDS011;55508;54.368;18.406;2023-09-18T09:40:28;10.27;;;9.50;;
68315;SDS011;55508;54.368;18.406;2023-09-18T09:42:56;10.55;;;8.40;;
68315;SDS011;55508;54.368;18.406;2023-09-18T09:45:28;8.55;;;7.55;;
68315;SDS011;55508;54.368;18.406;2023-09-18T09:47:57;8.77;;;8.00;;
68315;SDS011;55508;54.368;18.406;2023-09-18T09:50:24;11.52;;;7.78;;
68315;SDS011;55508;54.368;18.406;2023-09-18T09:52:53;8.77;;;7.25;;
68315;SDS011;55508;54.368;18.406;2023-09-18T09:55:22;8.45;;;7.72;;
68315;SDS011;55508;54.368;18.406;2023-09-18T09:58:01;9.30;;;8.35;;
68315;SDS011;55508;54.368;18.406;2023-09-18T10:00:34;9.80;;;7.45;;
68315;SDS011;55508;54.368;18.406;2023-09-18T10:03:10;9.63;;;8.68;;
68315;SDS011;55508;54.368;18.406;2023-09-18T10:05:39;14.18;;;6.95;;
68315;SDS011;55508;54.368;18.406;2023-09-18T10:08:10;8.85;;;7.07;;
68315;SDS011;55508;54.368;18.406;2023-09-18T10:10:43;7.68;;;7.07;;
68315;SDS011;55508;54.368;18.406;2023-09-18T10:13:18;8.35;;;7.03;;
68315;SDS011;55508;54.368;18.406;2023-09-18T10:15:48;10.00;;;6.80;;
68315;SDS011;55508;54.368;18.406;2023-09-18T10:18:18;8.63;;;7.43;;
68315;SDS011;55508;54.368;18.406;2023-09-18T10:20:50;10.13;;;6.22;;
68315;SDS011;55508;54.368;18.406;2023-09-18T10:23:21;39.25;;;7.95;;
68315;SDS011;55508;54.368;18.406;2023-09-18T10:25:53;7.93;;;7.20;;
68315;SDS011;55508;54.368;18.406;2023-09-18T10:28:23;7.40;;;6.90;;
68315;SDS011;55508;54.368;18.406;2023-09-18T10:30:50;13.98;;;6.47;;
68315;SDS011;55508;54.368;18.406;2023-09-18T10:33:18;10.15;;;6.97;;
68315;SDS011;55508;54.368;18.406;2023-09-18T10:35:46;12.25;;;6.55;;
68315;SDS011;55508;54.368;18.406;2023-09-18T10:38:14;7.20;;;6.60;;
68315;SDS011;55508;54.368;18.406;2023-09-18T10:40:42;9.25;;;6.60;;
68315;SDS011;55508;54.368;18.406;2023-09-18T10:43:09;6.35;;;5.85;;
68315;SDS011;55508;54.368;18.406;2023-09-18T10:45:38;7.30;;;5.70;;
68315;SDS011;55508;54.368;18.406;2023-09-18T10:48:06;6.15;;;5.75;;
68315;SDS011;55508;54.368;18.406;2023-09-18T10:50:35;6.25;;;5.75;;
68315;SDS011;55508;54.368;18.406;2023-09-18T10:53:03;6.30;;;5.90;;
68315;SDS011;55508;54.368;18.406;2023-09-18T10:55:30;7.10;;;6.50;;
68315;SDS011;55508;54.368;18.406;2023-09-18T10:58:00;8.02;;;5.70;;
68315;SDS011;55508;54.368;18.406;2023-09-18T11:00:28;7.05;;;4.70;;
68315;SDS011;55508;54.368;18.406;2023-09-18T11:05:46;5.50;;;5.00;;
68315;SDS011;55508;54.368;18.406;2023-09-18T11:11:02;4.40;;;4.03;;
68315;SDS011;55508;54.368;18.406;2023-09-18T11:13:42;6.07;;;4.13;;
68315;SDS011;55508;54.368;18.406;2023-09-18T11:21:34;10.70;;;6.13;;
68315;SDS011;55508;54.368;18.406;2023-09-18T11:24:02;5.32;;;4.57;;
68315;SDS011;55508;54.368;18.406;2023-09-18T11:26:31;4.68;;;4.15;;
68315;SDS011;55508;54.368;18.406;2023-09-18T11:29:06;4.32;;;3.85;;
68315;SDS011;55508;54.368;18.406;2023-09-18T11:34:31;4.82;;;4.03;;
68315;SDS011;55508;54.368;18.406;2023-09-18T11:36:59;4.85;;;4.45;;
68315;SDS011;55508;54.368;18.406;2023-09-18T11:39:36;5.90;;;5.30;;
68315;SDS011;55508;54.368;18.406;2023-09-18T11:42:08;5.55;;;4.40;;
68315;SDS011;55508;54.368;18.406;2023-09-18T11:44:37;4.40;;;4.13;;
68315;SDS011;55508;54.368;18.406;2023-09-18T11:47:09;6.07;;;4.13;;
68315;SDS011;55508;54.368;18.406;2023-09-18T11:49:52;3.78;;;3.58;;
68315;SDS011;55508;54.368;18.406;2023-09-18T11:52:25;4.03;;;3.72;;
68315;SDS011;55508;54.368;18.406;2023-09-18T11:54:53;3.95;;;3.65;;
68315;SDS011;55508;54.368;18.406;2023-09-18T11:57:24;4.80;;;3.45;;
68315;SDS011;55508;54.368;18.406;2023-09-18T11:59:51;7.70;;;3.50;;
68315;SDS011;55508;54.368;18.406;2023-09-18T12:02:28;13.48;;;4.00;;
68315;SDS011;55508;54.368;18.406;2023-09-18T12:05:15;4.15;;;3.75;;
68315;SDS011;55508;54.368;18.406;2023-09-18T12:07:44;4.63;;;3.70;;
68315;SDS011;55508;54.368;18.406;2023-09-18T12:10:15;7.53;;;3.42;;
68315;SDS011;55508;54.368;18.406;2023-09-18T12:12:44;4.15;;;3.75;;
68315;SDS011;55508;54.368;18.406;2023-09-18T12:15:11;6.20;;;3.70;;
68315;SDS011;55508;54.368;18.406;2023-09-18T12:17:39;5.40;;;3.70;;
68315;SDS011;55508;54.368;18.406;2023-09-18T12:20:06;4.15;;;3.40;;
68315;SDS011;55508;54.368;18.406;2023-09-18T12:22:36;4.68;;;3.13;;
68315;SDS011;55508;54.368;18.406;2023-09-18T12:25:12;3.60;;;3.35;;
68315;SDS011;55508;54.368;18.406;2023-09-18T12:27:43;8.05;;;3.75;;
68315;SDS011;55508;54.368;18.406;2023-09-18T12:30:10;3.83;;;3.42;;
68315;SDS011;55508;54.368;18.406;2023-09-18T12:32:38;11.63;;;3.42;;
68315;SDS011;55508;54.368;18.406;2023-09-18T12:35:06;3.53;;;3.22;;
68315;SDS011;55508;54.368;18.406;2023-09-18T12:37:34;3.92;;;3.63;;
68315;SDS011;55508;54.368;18.406;2023-09-18T12:40:02;4.10;;;3.70;;
68315;SDS011;55508;54.368;18.406;2023-09-18T12:42:34;5.50;;;3.58;;
68315;SDS011;55508;54.368;18.406;2023-09-18T12:45:02;3.67;;;3.38;;
68315;SDS011;55508;54.368;18.406;2023-09-18T12:47:31;7.13;;;3.90;;
68315;SDS011;55508;54.368;18.406;2023-09-18T12:50:02;7.07;;;3.78;;
68315;SDS011;55508;54.368;18.406;2023-09-18T12:52:30;5.43;;;3.28;;
68315;SDS011;55508;54.368;18.406;2023-09-18T12:54:58;4.50;;;3.50;;
68315;SDS011;55508;54.368;18.406;2023-09-18T12:57:30;3.58;;;3.05;;
68315;SDS011;55508;54.368;18.406;2023-09-18T12:59:58;3.80;;;3.50;;
68315;SDS011;55508;54.368;18.406;2023-09-18T13:02:25;75.32;;;7.18;;
68315;SDS011;55508;54.368;18.406;2023-09-18T13:04:56;31.10;;;4.57;;
68315;SDS011;55508;54.368;18.406;2023-09-18T13:07:23;3.88;;;3.63;;
68315;SDS011;55508;54.368;18.406;2023-09-18T13:12:41;5.95;;;3.78;;
68315;SDS011;55508;54.368;18.406;2023-09-18T13:15:10;6.43;;;3.78;;
68315;SDS011;55508;54.368;18.406;2023-09-18T13:17:43;8.27;;;3.50;;
68315;SDS011;55508;54.368;18.406;2023-09-18T13:20:12;5.63;;;4.05;;
68315;SDS011;55508;54.368;18.406;2023-09-18T13:22:41;6.18;;;3.75;;
68315;SDS011;55508;54.368;18.406;2023-09-18T13:25:09;4.38;;;3.97;;
68315;SDS011;55508;54.368;18.406;2023-09-18T13:27:39;33.22;;;5.13;;
68315;SDS011;55508;54.368;18.406;2023-09-18T13:30:06;16.52;;;4.65;;
68315;SDS011;55508;54.368;18.406;2023-09-18T13:32:35;10.45;;;4.00;;
68315;SDS011;55508;54.368;18.406;2023-09-18T13:35:06;11.00;;;3.90;;
68315;SDS011;55508;54.368;18.406;2023-09-18T13:37:34;7.85;;;3.70;;
68315;SDS011;55508;54.368;18.406;2023-09-18T13:40:01;5.65;;;3.40;;
68315;SDS011;55508;54.368;18.406;2023-09-18T13:42:29;3.63;;;3.22;;
68315;SDS011;55508;54.368;18.406;2023-09-18T13:44:57;4.03;;;3.65;;
68315;SDS011;55508;54.368;18.406;2023-09-18T13:47:29;8.30;;;3.27;;
68315;SDS011;55508;54.368;18.406;2023-09-18T13:49:56;5.15;;;3.60;;
68315;SDS011;55508;54.368;18.406;2023-09-18T13:52:26;8.82;;;3.60;;
68315;SDS011;55508;54.368;18.406;2023-09-18T13:54:53;9.13;;;3.60;;
68315;SDS011;55508;54.368;18.406;2023-09-18T13:57:20;7.65;;;3.25;;
68315;SDS011;55508;54.368;18.406;2023-09-18T13:59:48;4.82;;;3.33;;
68315;SDS011;55508;54.368;18.406;2023-09-18T14:02:17;4.63;;;3.17;;
68315;SDS011;55508;54.368;18.406;2023-09-18T14:04:44;4.50;;;3.42;;
68315;SDS011;55508;54.368;18.406;2023-09-18T14:07:11;6.15;;;3.75;;
68315;SDS011;55508;54.368;18.406;2023-09-18T14:09:38;4.65;;;3.30;;
68315;SDS011;55508;54.368;18.406;2023-09-18T14:12:06;4.00;;;3.47;;
68315;SDS011;55508;54.368;18.406;2023-09-18T14:14:36;3.93;;;3.63;;
68315;SDS011;55508;54.368;18.406;2023-09-18T14:17:03;3.58;;;3.25;;
68315;SDS011;55508;54.368;18.406;2023-09-18T14:19:30;4.45;;;4.05;;
68315;SDS011;55508;54.368;18.406;2023-09-18T14:21:58;4.22;;;3.67;;
68315;SDS011;55508;54.368;18.406;2023-09-18T14:24:30;5.32;;;3.53;;
68315;SDS011;55508;54.368;18.406;2023-09-18T14:27:01;4.57;;;3.75;;
68315;SDS011;55508;54.368;18.406;2023-09-18T14:29:29;3.92;;;3.63;;
68315;SDS011;55508;54.368;18.406;2023-09-18T14:32:03;5.13;;;3.70;;
68315;SDS011;55508;54.368;18.406;2023-09-18T14:34:30;7.00;;;3.80;;
68315;SDS011;55508;54.368;18.406;2023-09-18T14:36:57;6.65;;;4.20;;
68315;SDS011;55508;54.368;18.406;2023-09-18T14:39:24;4.82;;;4.05;;
68315;SDS011;55508;54.368;18.406;2023-09-18T14:41:52;5.40;;;4.05;;
68315;SDS011;55508;54.368;18.406;2023-09-18T14:44:19;8.95;;;4.32;;
68315;SDS011;55508;54.368;18.406;2023-09-18T14:46:47;7.68;;;3.83;;
68315;SDS011;55508;54.368;18.406;2023-09-18T14:49:14;4.75;;;4.32;;